Time;durP1;ratioP1;P1;durP2;ratioP2;P2;SDS_P1;SDS_P2;PMS_P1;PMS_P2;Temp;Humidity;BMP_temperature;BMP_pressure;BME280_temperature;BME280_humidity;BME280_pressure;Samples;Min_cycle;Max_cycle;Signal;HPM_P1;HPM_P2
2023/04/16 00:02:11;;;;;;;;;;;8.90;96.10;;;;;;5113139;27;20341;-68
2023/04/16 00:04:37;;;;;;;;;;;8.90;96.10;;;;;;5129299;27;19917;-68
2023/04/16 00:07:02;;;;;;;;;;;8.90;96.10;;;;;;5129336;27;19914;-68
2023/04/16 00:09:28;;;;;;;;;;;8.90;95.90;;;;;;5108888;28;20655;-68
2023/04/16 00:11:53;;;;;;;;;;;8.90;96.00;;;;;;5108296;28;20002;-68
2023/04/16 00:14:19;;;;;;;;;;;8.90;96.00;;;;;;5108768;28;19911;-68
2023/04/16 00:16:44;;;;;;;;;;;8.90;96.10;;;;;;5107394;28;19926;-68
2023/04/16 00:19:10;;;;;;;;;;;8.90;96.10;;;;;;5103409;28;19934;-68
2023/04/16 00:21:35;;;;;;;;;;;8.90;96.10;;;;;;5108239;28;19980;-68
2023/04/16 00:24:01;;;;;;;;;;;8.80;96.00;;;;;;5107947;28;19912;-68
2023/04/16 00:26:26;;;;;;;;;;;8.90;95.90;;;;;;5108452;28;20002;-68
2023/04/16 00:28:52;;;;;;;;;;;8.90;96.30;;;;;;5108388;28;20349;-68
2023/04/16 00:31:17;;;;;;;;;;;8.80;96.20;;;;;;5108391;28;19919;-68
2023/04/16 00:33:43;;;;;;;;;;;8.90;96.00;;;;;;5125725;27;19915;-68
2023/04/16 00:36:08;;;;;;;;;;;8.80;96.00;;;;;;5128835;27;20011;-68
2023/04/16 00:38:34;;;;;;;;;;;8.80;96.00;;;;;;5116052;28;20690;-68
2023/04/16 00:40:59;;;;;;;;;;;8.80;96.00;;;;;;5108273;28;19912;-68
2023/04/16 00:43:25;;;;;;;;;;;8.80;96.20;;;;;;5107929;28;19989;-68
2023/04/16 00:45:51;;;;;;;;;;;8.80;96.00;;;;;;5108446;28;20356;-68
2023/04/16 00:48:17;;;;;;;;;;;8.80;96.20;;;;;;5108013;28;19916;-68
2023/04/16 00:50:43;;;;;;;;;;;8.80;96.20;;;;;;5108245;28;19918;-68
2023/04/16 00:53:08;;;;;;;;;;;8.80;96.20;;;;;;5107873;28;20002;-68
2023/04/16 00:55:34;;;;;;;;;;;8.80;96.10;;;;;;5108163;28;19919;-68
2023/04/16 00:57:59;;;;;;;;;;;8.80;96.10;;;;;;5107884;28;19922;-68
2023/04/16 01:00:25;;;;;;;;;;;8.80;96.30;;;;;;5108129;28;20407;-68
2023/04/16 01:02:52;;;;;;;;;;;8.80;96.10;;;;;;5117993;28;19927;-68
2023/04/16 01:05:18;;;;;;;;;;;8.80;96.20;;;;;;5128538;27;19915;-68
2023/04/16 01:07:43;;;;;;;;;;;8.80;96.40;;;;;;5124048;27;19989;-68
2023/04/16 01:10:09;;;;;;;;;;;8.80;96.30;;;;;;5110022;28;20373;-68
2023/04/16 01:12:34;;;;;;;;;;;8.80;96.40;;;;;;5110392;28;19919;-68
2023/04/16 01:15:00;;;;;;;;;;;8.80;96.20;;;;;;5111989;28;19915;-68
2023/04/16 01:17:25;;;;;;;;;;;8.80;96.40;;;;;;5111314;28;20412;-68
2023/04/16 01:19:51;;;;;;;;;;;8.80;96.30;;;;;;5111467;28;19924;-68
2023/04/16 01:22:16;;;;;;;;;;;8.80;96.40;;;;;;5111429;28;19979;-68
2023/04/16 01:24:42;;;;;;;;;;;8.80;96.60;;;;;;5111796;28;19912;-68
2023/04/16 01:27:07;;;;;;;;;;;8.80;96.70;;;;;;5111715;28;20003;-68
2023/04/16 01:29:33;;;;;;;;;;;8.80;96.40;;;;;;5110363;28;19957;-68
2023/04/16 01:31:59;;;;;;;;;;;8.80;96.30;;;;;;5109613;28;19995;-68
2023/04/16 01:34:24;;;;;;;;;;;8.80;96.50;;;;;;5110409;28;20327;-68
2023/04/16 01:36:50;;;;;;;;;;;8.80;96.30;;;;;;5111517;28;19961;-68
2023/04/16 01:39:18;;;;;;;;;;;8.80;96.50;;;;;;5111034;28;20010;-68
2023/04/16 01:41:43;;;;;;;;;;;8.80;96.30;;;;;;5111124;28;19934;-68
2023/04/16 01:44:09;;;;;;;;;;;8.80;96.30;;;;;;5111347;28;20598;-68
2023/04/16 01:46:36;;;;;;;;;;;8.80;96.50;;;;;;5111133;28;19916;-68
2023/04/16 01:49:03;;;;;;;;;;;8.80;96.40;;;;;;5110973;28;19912;-68
2023/04/16 01:51:28;;;;;;;;;;;8.80;96.40;;;;;;5111451;28;20371;-68
2023/04/16 01:53:54;;;;;;;;;;;8.80;96.60;;;;;;5110625;28;19915;-68
2023/04/16 01:56:19;;;;;;;;;;;8.80;96.40;;;;;;5111568;28;19916;-68
2023/04/16 01:58:46;;;;;;;;;;;8.80;96.50;;;;;;5111006;28;20627;-68
2023/04/16 02:01:12;;;;;;;;;;;8.80;96.60;;;;;;5111410;28;19916;-68
2023/04/16 02:03:37;;;;;;;;;;;8.80;96.50;;;;;;5127726;27;20382;-68
2023/04/16 02:06:03;;;;;;;;;;;8.80;96.50;;;;;;5131680;27;19907;-68
2023/04/16 02:08:28;;;;;;;;;;;8.80;96.50;;;;;;5119614;27;19997;-68
2023/04/16 02:10:55;;;;;;;;;;;8.80;96.40;;;;;;5110922;28;19980;-68
2023/04/16 02:13:20;;;;;;;;;;;8.80;96.60;;;;;;5110531;28;19941;-68
2023/04/16 02:15:47;;;;;;;;;;;8.70;96.60;;;;;;5110790;28;20611;-68
2023/04/16 02:18:12;;;;;;;;;;;8.70;96.50;;;;;;5108651;28;19916;-68
2023/04/16 02:20:45;;;;;;;;;;;8.80;96.70;;;;;;5109455;28;19920;-68
2023/04/16 02:23:10;;;;;;;;;;;8.80;96.70;;;;;;5110431;28;19908;-68
2023/04/16 02:25:42;;;;;;;;;;;8.80;96.70;;;;;;5110489;28;19925;-68
2023/04/16 02:28:08;;;;;;;;;;;8.80;96.60;;;;;;5109191;28;20277;-68
2023/04/16 02:30:40;;;;;;;;;;;8.80;96.70;;;;;;5110562;28;19912;-68
2023/04/16 02:33:06;;;;;;;;;;;8.80;96.50;;;;;;5122620;27;19911;-68
2023/04/16 02:35:33;;;;;;;;;;;8.70;96.60;;;;;;5131067;27;19912;-68
2023/04/16 02:37:58;;;;;;;;;;;8.70;96.70;;;;;;5123346;27;20330;-68
2023/04/16 02:40:24;;;;;;;;;;;8.70;96.70;;;;;;5110496;28;19966;-68
2023/04/16 02:42:49;;;;;;;;;;;8.80;96.80;;;;;;5110250;28;19925;-68
2023/04/16 02:45:15;;;;;;;;;;;8.80;96.70;;;;;;5110367;28;19918;-68
2023/04/16 02:47:40;;;;;;;;;;;8.70;96.70;;;;;;5110051;28;20396;-68
2023/04/16 02:50:06;;;;;;;;;;;8.80;96.80;;;;;;5110183;28;19908;-68
2023/04/16 02:52:32;;;;;;;;;;;8.70;96.80;;;;;;5109767;27;19918;-68
2023/04/16 02:54:58;;;;;;;;;;;8.70;96.70;;;;;;5110269;28;19911;-68
2023/04/16 02:57:23;;;;;;;;;;;8.80;96.70;;;;;;5109928;28;19916;-68
2023/04/16 02:59:49;;;;;;;;;;;8.70;96.80;;;;;;5110409;28;20600;-68
2023/04/16 03:02:15;;;;;;;;;;;8.80;96.80;;;;;;5114941;27;19911;-68
2023/04/16 03:04:40;;;;;;;;;;;8.70;96.70;;;;;;5101031;27;19947;-68
2023/04/16 03:07:07;;;;;;;;;;;8.80;96.70;;;;;;5105994;28;20423;-68
2023/04/16 03:09:33;;;;;;;;;;;8.80;96.90;;;;;;5109540;28;19961;-68
2023/04/16 03:12:00;;;;;;;;;;;8.70;96.80;;;;;;5109203;28;20527;-68
2023/04/16 03:14:26;;;;;;;;;;;8.70;96.80;;;;;;5109463;28;19916;-68
2023/04/16 03:16:51;;;;;;;;;;;8.80;96.90;;;;;;5109463;28;19988;-68
2023/04/16 03:19:17;;;;;;;;;;;8.70;96.80;;;;;;5107506;28;19919;-68
2023/04/16 03:21:42;;;;;;;;;;;8.70;96.90;;;;;;5109522;28;20516;-68
2023/04/16 03:24:08;;;;;;;;;;;8.70;96.80;;;;;;5109298;28;19908;-68
2023/04/16 03:26:33;;;;;;;;;;;8.70;96.90;;;;;;5109613;28;20006;-68
2023/04/16 03:29:00;;;;;;;;;;;8.70;96.90;;;;;;5109663;28;19943;-68
2023/04/16 03:31:26;;;;;;;;;;;8.70;96.90;;;;;;5109408;28;20002;-68
2023/04/16 03:33:52;;;;;;;;;;;8.80;96.80;;;;;;5108850;28;20022;-68
2023/04/16 03:36:17;;;;;;;;;;;8.80;96.80;;;;;;5109256;28;19919;-68
2023/04/16 03:38:43;;;;;;;;;;;8.80;96.80;;;;;;5108991;28;19941;-68
2023/04/16 03:41:08;;;;;;;;;;;8.70;96.70;;;;;;5109149;28;19960;-68
2023/04/16 03:43:34;;;;;;;;;;;8.80;96.80;;;;;;5108903;28;20356;-68
2023/04/16 03:46:00;;;;;;;;;;;8.80;96.90;;;;;;5109167;28;19961;-68
2023/04/16 03:48:25;;;;;;;;;;;8.80;96.80;;;;;;5107684;28;19918;-68
2023/04/16 03:50:51;;;;;;;;;;;8.80;96.80;;;;;;5107553;28;20349;-68
2023/04/16 03:53:16;;;;;;;;;;;8.70;96.70;;;;;;5108662;28;19915;-68
2023/04/16 03:55:42;;;;;;;;;;;8.80;96.80;;;;;;5108919;28;19969;-68
2023/04/16 03:58:07;;;;;;;;;;;8.80;96.80;;;;;;5108474;28;20362;-68
2023/04/16 04:00:33;;;;;;;;;;;8.70;96.70;;;;;;5108901;28;20360;-68
2023/04/16 04:02:58;;;;;;;;;;;8.80;96.80;;;;;;5108726;28;20356;-68
2023/04/16 04:05:24;;;;;;;;;;;8.70;96.70;;;;;;5108840;28;19912;-68
2023/04/16 04:07:49;;;;;;;;;;;8.80;96.80;;;;;;5108684;28;19947;-68
2023/04/16 04:10:15;;;;;;;;;;;8.70;96.90;;;;;;5108700;28;19912;-68
2023/04/16 04:12:41;;;;;;;;;;;8.70;96.80;;;;;;5108376;28;19922;-68
2023/04/16 04:15:07;;;;;;;;;;;8.70;96.60;;;;;;5108699;28;19908;-68
2023/04/16 04:17:32;;;;;;;;;;;8.80;96.80;;;;;;5108334;28;19923;-68
2023/04/16 04:19:58;;;;;;;;;;;8.80;96.80;;;;;;5108182;28;20297;-68
2023/04/16 04:22:23;;;;;;;;;;;8.70;96.80;;;;;;5104544;28;20003;-68
2023/04/16 04:24:49;;;;;;;;;;;8.70;96.60;;;;;;5108151;28;20341;-68
2023/04/16 04:27:14;;;;;;;;;;;8.70;96.70;;;;;;5108284;28;19980;-68
2023/04/16 04:29:40;;;;;;;;;;;8.80;96.70;;;;;;5108384;28;19947;-68
2023/04/16 04:32:05;;;;;;;;;;;8.70;96.80;;;;;;5107902;28;20301;-68
2023/04/16 04:34:31;;;;;;;;;;;8.70;96.80;;;;;;5108396;28;19911;-68
2023/04/16 04:36:57;;;;;;;;;;;8.70;96.70;;;;;;5108537;28;20349;-68
2023/04/16 04:39:23;;;;;;;;;;;8.80;96.70;;;;;;5108257;28;19916;-68
2023/04/16 04:41:48;;;;;;;;;;;8.80;96.90;;;;;;5107840;28;20351;-68
2023/04/16 04:44:14;;;;;;;;;;;8.80;96.80;;;;;;5114520;28;19912;-68
2023/04/16 04:46:39;;;;;;;;;;;8.80;96.70;;;;;;5114541;27;20008;-68
2023/04/16 04:49:05;;;;;;;;;;;8.80;96.80;;;;;;5114841;27;20269;-68
2023/04/16 04:51:31;;;;;;;;;;;8.70;96.90;;;;;;5114646;27;19957;-68
2023/04/16 04:53:56;;;;;;;;;;;8.70;96.80;;;;;;5114581;27;19915;-68
2023/04/16 04:56:22;;;;;;;;;;;8.70;96.90;;;;;;5115078;27;19923;-68
2023/04/16 04:58:50;;;;;;;;;;;8.80;96.80;;;;;;5114790;27;20014;-68
2023/04/16 05:01:16;;;;;;;;;;;8.70;96.80;;;;;;5113794;28;19912;-68
2023/04/16 05:03:41;;;;;;;;;;;8.70;96.70;;;;;;5114034;27;19984;-68
2023/04/16 05:06:07;;;;;;;;;;;8.80;96.80;;;;;;5114975;27;19985;-68
2023/04/16 05:08:32;;;;;;;;;;;8.70;96.80;;;;;;5114731;27;19939;-68
2023/04/16 05:10:58;;;;;;;;;;;8.80;96.80;;;;;;5114572;27;19950;-68
2023/04/16 05:13:23;;;;;;;;;;;8.80;96.90;;;;;;5114497;27;20010;-68
2023/04/16 05:15:49;;;;;;;;;;;8.70;96.80;;;;;;5114851;27;20534;-68
2023/04/16 05:18:14;;;;;;;;;;;8.80;96.80;;;;;;5108732;27;19919;-68
2023/04/16 05:20:40;;;;;;;;;;;8.80;96.90;;;;;;5114278;27;20408;-68
2023/04/16 05:23:05;;;;;;;;;;;8.70;96.80;;;;;;5114633;27;19911;-68
2023/04/16 05:25:31;;;;;;;;;;;8.70;96.80;;;;;;5114592;28;19980;-68
2023/04/16 05:27:56;;;;;;;;;;;8.70;96.60;;;;;;5109408;27;19919;-68
2023/04/16 05:30:22;;;;;;;;;;;8.80;96.70;;;;;;5111729;28;19912;-68
2023/04/16 05:32:49;;;;;;;;;;;8.70;96.70;;;;;;5112324;27;21480;-68
2023/04/16 05:35:15;;;;;;;;;;;8.70;96.70;;;;;;5114451;27;19955;-68
2023/04/16 05:37:40;;;;;;;;;;;8.70;96.60;;;;;;5114464;27;20014;-68
2023/04/16 05:40:06;;;;;;;;;;;8.80;96.70;;;;;;5114489;27;20276;-68
2023/04/16 05:42:31;;;;;;;;;;;8.80;96.80;;;;;;5114193;27;19908;-68
2023/04/16 05:44:57;;;;;;;;;;;8.70;96.70;;;;;;5114698;27;19919;-68
2023/04/16 05:47:23;;;;;;;;;;;8.70;96.70;;;;;;5114264;27;20349;-68
2023/04/16 05:49:48;;;;;;;;;;;8.80;96.70;;;;;;5114731;27;19912;-68
2023/04/16 05:52:14;;;;;;;;;;;8.80;96.70;;;;;;5114204;27;19918;-68
2023/04/16 05:54:39;;;;;;;;;;;8.80;96.70;;;;;;5111340;27;19961;-68
2023/04/16 05:57:05;;;;;;;;;;;8.80;96.70;;;;;;5111396;28;19977;-68
2023/04/16 05:59:31;;;;;;;;;;;8.80;96.90;;;;;;5111153;28;20003;-68
2023/04/16 06:01:56;;;;;;;;;;;8.80;96.70;;;;;;5110932;28;19919;-68
2023/04/16 06:04:22;;;;;;;;;;;8.80;96.80;;;;;;5110896;28;19912;-68
2023/04/16 06:06:47;;;;;;;;;;;8.80;96.70;;;;;;5111069;28;19922;-68
2023/04/16 06:09:13;;;;;;;;;;;8.80;96.70;;;;;;5110698;28;20691;-68
2023/04/16 06:11:38;;;;;;;;;;;8.80;96.90;;;;;;5110845;28;19918;-68
2023/04/16 06:14:04;;;;;;;;;;;8.80;96.70;;;;;;5110610;28;19918;-68
2023/04/16 06:16:29;;;;;;;;;;;8.80;96.80;;;;;;5109725;28;19965;-68
2023/04/16 06:18:55;;;;;;;;;;;8.80;96.90;;;;;;5110107;28;19969;-68
2023/04/16 06:21:21;;;;;;;;;;;8.80;96.90;;;;;;5110691;28;20339;-68
2023/04/16 06:23:46;;;;;;;;;;;8.80;96.80;;;;;;5110308;28;19911;-68
2023/04/16 06:26:12;;;;;;;;;;;8.80;96.90;;;;;;5110199;28;20421;-68
2023/04/16 06:28:37;;;;;;;;;;;8.80;96.80;;;;;;5110637;28;19923;-68
2023/04/16 06:31:03;;;;;;;;;;;8.80;96.90;;;;;;5110679;28;19998;-68
2023/04/16 06:33:28;;;;;;;;;;;8.80;97.00;;;;;;5110154;28;20602;-68
2023/04/16 06:35:54;;;;;;;;;;;8.80;96.90;;;;;;5110464;28;19948;-68
2023/04/16 06:38:19;;;;;;;;;;;8.80;97.10;;;;;;5110359;28;19920;-68
2023/04/16 06:40:45;;;;;;;;;;;8.80;97.00;;;;;;5108791;28;20645;-68
2023/04/16 06:43:10;;;;;;;;;;;8.80;97.00;;;;;;5110150;28;19916;-68
2023/04/16 06:45:36;;;;;;;;;;;8.80;97.00;;;;;;5110394;28;19908;-68
2023/04/16 06:48:02;;;;;;;;;;;8.80;97.20;;;;;;5108883;28;19907;-68
2023/04/16 06:50:28;;;;;;;;;;;8.90;97.20;;;;;;5109998;28;19954;-68
2023/04/16 06:52:54;;;;;;;;;;;8.90;97.10;;;;;;5109912;28;19958;-68
2023/04/16 06:55:19;;;;;;;;;;;8.90;97.10;;;;;;5109913;28;20221;-68
2023/04/16 06:57:45;;;;;;;;;;;8.90;97.10;;;;;;5109950;28;19912;-68
2023/04/16 07:00:11;;;;;;;;;;;8.90;96.90;;;;;;5109973;28;20433;-68
2023/04/16 07:02:36;;;;;;;;;;;9.00;97.00;;;;;;5107855;28;19914;-68
2023/04/16 07:05:02;;;;;;;;;;;9.00;97.00;;;;;;5109589;27;20383;-68
2023/04/16 07:07:28;;;;;;;;;;;9.00;96.90;;;;;;5109616;28;19964;-68
2023/04/16 07:09:53;;;;;;;;;;;9.00;96.90;;;;;;5109771;28;20419;-68
2023/04/16 07:12:19;;;;;;;;;;;9.00;96.80;;;;;;5108205;28;20427;-68
2023/04/16 07:14:45;;;;;;;;;;;9.00;96.80;;;;;;5109632;28;19911;-68
2023/04/16 07:17:11;;;;;;;;;;;9.10;96.80;;;;;;5104819;28;19916;-68
2023/04/16 07:19:36;;;;;;;;;;;9.10;96.80;;;;;;5108246;28;19934;-68
2023/04/16 07:22:02;;;;;;;;;;;9.10;96.80;;;;;;5109274;28;20291;-68
2023/04/16 07:24:28;;;;;;;;;;;9.10;96.70;;;;;;5108000;28;19918;-68
2023/04/16 07:26:53;;;;;;;;;;;9.10;96.90;;;;;;5109656;28;19908;-68
2023/04/16 07:29:19;;;;;;;;;;;9.20;97.10;;;;;;5109432;28;19911;-68
2023/04/16 07:31:44;;;;;;;;;;;9.10;96.80;;;;;;5109279;28;20364;-68
2023/04/16 07:34:10;;;;;;;;;;;9.20;96.80;;;;;;5109242;28;20146;-68
2023/04/16 07:36:36;;;;;;;;;;;9.20;96.90;;;;;;5109355;28;19947;-68
2023/04/16 07:39:01;;;;;;;;;;;9.20;96.80;;;;;;5108836;28;20015;-68
2023/04/16 07:41:28;;;;;;;;;;;9.20;96.80;;;;;;5109261;28;19959;-68
2023/04/16 07:43:54;;;;;;;;;;;9.20;96.90;;;;;;5108890;28;19919;-68
2023/04/16 07:46:20;;;;;;;;;;;9.20;96.80;;;;;;5109326;28;19912;-68
2023/04/16 07:48:46;;;;;;;;;;;9.20;96.80;;;;;;5108952;28;19918;-68
2023/04/16 07:51:11;;;;;;;;;;;9.30;96.80;;;;;;5109163;28;19994;-68
2023/04/16 07:53:37;;;;;;;;;;;9.30;96.80;;;;;;5108746;28;20569;-68
2023/04/16 07:56:02;;;;;;;;;;;9.30;96.80;;;;;;5108974;28;19918;-68
2023/04/16 07:58:28;;;;;;;;;;;9.30;97.00;;;;;;5108724;28;19968;-68
2023/04/16 08:00:53;;;;;;;;;;;9.40;97.10;;;;;;5109031;28;20372;-68
2023/04/16 08:03:19;;;;;;;;;;;9.40;97.00;;;;;;5108539;28;20651;-68
2023/04/16 08:05:44;;;;;;;;;;;9.40;96.80;;;;;;5108255;27;19916;-68
2023/04/16 08:08:10;;;;;;;;;;;9.50;96.80;;;;;;5107999;28;19927;-68
2023/04/16 08:10:35;;;;;;;;;;;9.50;96.90;;;;;;5105121;28;19976;-68
2023/04/16 08:13:01;;;;;;;;;;;9.60;96.90;;;;;;5101861;28;19915;-68
2023/04/16 08:15:27;;;;;;;;;;;9.60;96.80;;;;;;5125202;27;20124;-68
2023/04/16 08:17:52;;;;;;;;;;;9.60;96.70;;;;;;5105719;28;19922;-68
2023/04/16 08:20:18;;;;;;;;;;;9.70;96.90;;;;;;5106468;28;19927;-68
2023/04/16 08:22:44;;;;;;;;;;;9.70;96.90;;;;;;5108195;28;20634;-68
2023/04/16 08:25:09;;;;;;;;;;;9.70;96.80;;;;;;5107758;28;19912;-68
2023/04/16 08:27:35;;;;;;;;;;;9.70;96.90;;;;;;5108211;28;20288;-68
2023/04/16 08:30:01;;;;;;;;;;;9.80;96.90;;;;;;5108021;28;20329;-68
2023/04/16 08:32:26;;;;;;;;;;;9.80;96.60;;;;;;5107873;28;19915;-68
2023/04/16 08:34:52;;;;;;;;;;;9.80;96.70;;;;;;5108059;28;19912;-68
2023/04/16 08:37:17;;;;;;;;;;;9.70;96.70;;;;;;5107793;28;19911;-68
2023/04/16 08:39:43;;;;;;;;;;;9.80;96.70;;;;;;5106620;28;19913;-68
2023/04/16 08:42:21;;;;;;;;;;;9.80;96.60;;;;;;5107575;28;19942;-68
2023/04/16 08:44:48;;;;;;;;;;;9.80;96.80;;;;;;5108083;28;19908;-68
2023/04/16 08:47:14;;;;;;;;;;;9.80;96.70;;;;;;5107976;28;19919;-68
2023/04/16 08:49:44;;;;;;;;;;;9.90;96.70;;;;;;5107855;28;19924;-68
2023/04/16 08:52:14;;;;;;;;;;;9.90;96.60;;;;;;5107873;28;19956;-68
2023/04/16 08:54:46;;;;;;;;;;;9.90;96.50;;;;;;5107886;28;19912;-68
2023/04/16 08:57:17;;;;;;;;;;;9.90;96.60;;;;;;5104447;28;19911;-68
2023/04/16 08:59:44;;;;;;;;;;;10.00;96.60;;;;;;5107974;28;19962;-68
2023/04/16 09:02:10;;;;;;;;;;;10.00;96.50;;;;;;5106198;28;20568;-69
2023/04/16 09:04:37;;;;;;;;;;;10.10;96.50;;;;;;5106403;28;19918;-68
2023/04/16 09:07:03;;;;;;;;;;;10.10;96.50;;;;;;5107792;28;20291;-68
2023/04/16 09:09:29;;;;;;;;;;;10.10;96.30;;;;;;5107628;28;19907;-68
2023/04/16 09:11:55;;;;;;;;;;;10.10;96.50;;;;;;5107452;28;20317;-68
2023/04/16 09:14:21;;;;;;;;;;;10.10;96.40;;;;;;5107584;28;19994;-68
2023/04/16 09:16:46;;;;;;;;;;;10.20;96.50;;;;;;5107388;28;20385;-68
2023/04/16 09:19:13;;;;;;;;;;;10.20;96.40;;;;;;5107033;28;19936;-68
2023/04/16 09:21:40;;;;;;;;;;;10.20;96.40;;;;;;5101974;28;19915;-68
2023/04/16 09:24:06;;;;;;;;;;;10.20;96.50;;;;;;5106060;28;19965;-68
2023/04/16 09:26:32;;;;;;;;;;;10.20;96.70;;;;;;5116181;27;20708;-68
2023/04/16 09:28:58;;;;;;;;;;;10.20;96.40;;;;;;5096054;28;19919;-68
2023/04/16 09:31:23;;;;;;;;;;;10.20;96.40;;;;;;5098132;28;19912;-68
2023/04/16 09:34:02;;;;;;;;;;;10.30;96.50;;;;;;5099350;28;19912;-68
2023/04/16 09:36:28;;;;;;;;;;;10.30;96.40;;;;;;5107465;28;19995;-68
2023/04/16 09:38:54;;;;;;;;;;;10.30;96.40;;;;;;5110089;28;19922;-68
2023/04/16 09:41:27;;;;;;;;;;;10.30;96.30;;;;;;5107097;28;19912;-68
2023/04/16 09:43:53;;;;;;;;;;;10.30;96.40;;;;;;5109899;27;19912;-68
2023/04/16 09:46:19;;;;;;;;;;;10.30;96.40;;;;;;5110421;28;19912;-68
2023/04/16 09:48:44;;;;;;;;;;;10.40;96.30;;;;;;5110207;28;20387;-68
2023/04/16 09:51:10;;;;;;;;;;;10.40;96.20;;;;;;5110393;28;19916;-68
2023/04/16 09:53:35;;;;;;;;;;;10.40;96.40;;;;;;5109728;28;19911;-68
2023/04/16 09:56:02;;;;;;;;;;;10.50;96.30;;;;;;5109714;28;19920;-68
2023/04/16 09:58:28;;;;;;;;;;;10.50;96.10;;;;;;5110021;28;19922;-68
2023/04/16 10:01:04;;;;;;;;;;;10.50;96.20;;;;;;5110045;27;20322;-68
2023/04/16 10:03:30;;;;;;;;;;;10.60;96.20;;;;;;5109520;28;20368;-68
2023/04/16 10:06:00;;;;;;;;;;;10.60;96.20;;;;;;5109957;28;19957;-68
2023/04/16 10:08:26;;;;;;;;;;;10.60;96.10;;;;;;5109672;28;20306;-68
2023/04/16 10:10:53;;;;;;;;;;;10.60;96.00;;;;;;5109659;28;20436;-68
2023/04/16 10:13:18;;;;;;;;;;;10.60;96.00;;;;;;5109128;28;19920;-68
2023/04/16 10:15:44;;;;;;;;;;;10.60;96.00;;;;;;5109939;28;20429;-68
2023/04/16 10:18:10;;;;;;;;;;;10.60;96.00;;;;;;5107560;27;19916;-68
2023/04/16 10:20:35;;;;;;;;;;;10.70;96.10;;;;;;5109306;28;20379;-68
2023/04/16 10:23:01;;;;;;;;;;;10.70;96.10;;;;;;5109441;28;19916;-68
2023/04/16 10:25:27;;;;;;;;;;;10.70;95.90;;;;;;5106369;28;20456;-68
2023/04/16 10:27:54;;;;;;;;;;;10.70;96.00;;;;;;5108171;28;19918;-68
2023/04/16 10:30:20;;;;;;;;;;;10.80;95.90;;;;;;5109601;28;19911;-68
2023/04/16 10:32:46;;;;;;;;;;;10.80;96.00;;;;;;5107848;28;19911;-68
2023/04/16 10:35:17;;;;;;;;;;;10.90;96.10;;;;;;5109494;28;19915;-68
2023/04/16 10:37:44;;;;;;;;;;;10.90;95.90;;;;;;5109486;27;19916;-68
2023/04/16 10:40:29;;;;;;;;;;;11.00;95.70;;;;;;5108716;28;19912;-68
2023/04/16 10:42:56;;;;;;;;;;;11.10;95.50;;;;;;5108449;28;19950;-68
2023/04/16 10:45:31;;;;;;;;;;;11.10;95.40;;;;;;5109222;28;19916;-68
2023/04/16 10:47:57;;;;;;;;;;;11.20;95.30;;;;;;5109055;28;20368;-68
2023/04/16 10:50:23;;;;;;;;;;;11.30;95.20;;;;;;5107643;28;19919;-68
2023/04/16 10:53:07;;;;;;;;;;;11.20;95.30;;;;;;5108779;28;19980;-68
2023/04/16 10:55:36;;;;;;;;;;;11.30;95.30;;;;;;5097588;28;20018;-69
2023/04/16 10:58:22;;;;;;;;;;;11.30;95.20;;;;;;5088542;28;19923;-68
2023/04/16 11:00:49;;;;;;;;;;;11.30;95.30;;;;;;5088526;28;20371;-69
2023/04/16 11:03:15;;;;;;;;;;;11.40;95.20;;;;;;5090729;28;20273;-68
2023/04/16 11:05:45;;;;;;;;;;;11.60;95.20;;;;;;5108680;28;19912;-68
2023/04/16 11:08:15;;;;;;;;;;;11.80;94.70;;;;;;5108677;28;19912;-69
2023/04/16 11:10:41;;;;;;;;;;;11.80;94.50;;;;;;5108748;28;19919;-69
2023/04/16 11:13:07;;;;;;;;;;;11.90;94.50;;;;;;5108183;28;19912;-69
2023/04/16 11:15:33;;;;;;;;;;;12.00;94.40;;;;;;5107088;28;20268;-69
2023/04/16 11:17:59;;;;;;;;;;;12.00;94.40;;;;;;5106677;28;19916;-69
2023/04/16 11:20:25;;;;;;;;;;;12.00;94.50;;;;;;5108069;28;19948;-69
2023/04/16 11:22:51;;;;;;;;;;;12.00;94.60;;;;;;5108231;28;20300;-69
2023/04/16 11:25:21;;;;;;;;;;;11.90;94.60;;;;;;5108407;28;20034;-69
2023/04/16 11:27:47;;;;;;;;;;;11.90;94.70;;;;;;5108502;28;20367;-69
2023/04/16 11:30:13;;;;;;;;;;;11.90;94.70;;;;;;5108460;28;19911;-69
2023/04/16 11:32:38;;;;;;;;;;;11.90;94.60;;;;;;5107945;28;20353;-69
2023/04/16 11:35:15;;;;;;;;;;;12.00;94.60;;;;;;5107969;28;19918;-69
2023/04/16 11:37:41;;;;;;;;;;;12.00;94.60;;;;;;5108117;28;19915;-69
2023/04/16 11:40:08;;;;;;;;;;;12.00;94.50;;;;;;5107894;28;19911;-69
2023/04/16 11:42:39;;;;;;;;;;;12.10;94.50;;;;;;5107516;28;19951;-69
2023/04/16 11:45:05;;;;;;;;;;;12.10;94.50;;;;;;5121638;27;19918;-68
2023/04/16 11:47:31;;;;;;;;;;;12.10;94.50;;;;;;5106873;28;19923;-69
2023/04/16 11:49:56;;;;;;;;;;;12.10;94.50;;;;;;5106276;28;19907;-68
2023/04/16 11:52:26;;;;;;;;;;;12.10;94.60;;;;;;5104101;28;20697;-68
2023/04/16 11:54:52;;;;;;;;;;;12.10;94.60;;;;;;5104038;28;20368;-68
2023/04/16 11:57:23;;;;;;;;;;;12.10;94.60;;;;;;5106863;28;19943;-69
2023/04/16 11:59:49;;;;;;;;;;;12.00;94.70;;;;;;5106202;28;19926;-68
2023/04/16 12:02:14;;;;;;;;;;;12.00;94.80;;;;;;5105227;28;19912;-68
2023/04/16 12:04:41;;;;;;;;;;;12.00;94.80;;;;;;5107970;28;19911;-68
2023/04/16 12:07:07;;;;;;;;;;;12.00;94.80;;;;;;5101337;28;19931;-68
2023/04/16 12:09:35;;;;;;;;;;;11.90;94.90;;;;;;5107675;28;19965;-68
2023/04/16 12:12:01;;;;;;;;;;;11.90;95.00;;;;;;5107693;28;19990;-68
2023/04/16 12:14:27;;;;;;;;;;;11.90;95.00;;;;;;5107488;28;20003;-68
2023/04/16 12:16:53;;;;;;;;;;;11.90;94.90;;;;;;5106228;28;19912;-69
2023/04/16 12:19:19;;;;;;;;;;;11.90;94.80;;;;;;5105226;28;19927;-68
2023/04/16 12:21:45;;;;;;;;;;;11.90;94.80;;;;;;5094755;28;19919;-68
2023/04/16 12:24:12;;;;;;;;;;;12.00;94.80;;;;;;5086184;28;19922;-69
2023/04/16 12:26:50;;;;;;;;;;;12.00;94.80;;;;;;5087261;28;20377;-68
2023/04/16 12:29:23;;;;;;;;;;;11.90;94.80;;;;;;5087472;28;19919;-68
2023/04/16 12:31:49;;;;;;;;;;;11.90;94.80;;;;;;5089281;28;20404;-68
2023/04/16 12:34:15;;;;;;;;;;;12.00;94.80;;;;;;5105439;27;19911;-68
2023/04/16 12:36:42;;;;;;;;;;;12.00;94.80;;;;;;5107701;27;20285;-69
2023/04/16 12:39:09;;;;;;;;;;;12.00;94.80;;;;;;5102288;28;20769;-69
2023/04/16 12:41:38;;;;;;;;;;;12.00;94.80;;;;;;5103872;28;19912;-68
2023/04/16 12:44:13;;;;;;;;;;;12.00;94.80;;;;;;5100532;28;20433;-68
2023/04/16 12:46:42;;;;;;;;;;;12.00;94.80;;;;;;5106954;28;20599;-69
2023/04/16 12:49:08;;;;;;;;;;;12.00;94.80;;;;;;5105887;28;19911;-69
2023/04/16 12:51:34;;;;;;;;;;;12.10;94.70;;;;;;5106978;28;19911;-68
2023/04/16 12:54:01;;;;;;;;;;;12.10;94.60;;;;;;5107034;28;19967;-69
2023/04/16 12:56:26;;;;;;;;;;;12.20;94.50;;;;;;5099659;28;19998;-69
2023/04/16 12:58:52;;;;;;;;;;;12.30;94.40;;;;;;5105359;28;20605;-68
2023/04/16 13:01:18;;;;;;;;;;;12.30;94.30;;;;;;5105772;28;19918;-69
2023/04/16 13:03:44;;;;;;;;;;;12.40;94.20;;;;;;5107427;28;19916;-69
2023/04/16 13:06:09;;;;;;;;;;;12.50;94.10;;;;;;5104230;27;19915;-69
2023/04/16 13:08:36;;;;;;;;;;;12.50;94.00;;;;;;5119349;27;20002;-69
2023/04/16 13:11:02;;;;;;;;;;;12.50;94.10;;;;;;5111327;28;20329;-69
2023/04/16 13:13:27;;;;;;;;;;;12.50;94.10;;;;;;5110887;27;19912;-68
2023/04/16 13:15:53;;;;;;;;;;;12.50;94.20;;;;;;5111375;28;20275;-68
2023/04/16 13:18:18;;;;;;;;;;;12.50;94.30;;;;;;5109141;28;19916;-69
2023/04/16 13:20:44;;;;;;;;;;;12.40;94.30;;;;;;5111062;28;20633;-68
2023/04/16 13:23:10;;;;;;;;;;;12.50;94.40;;;;;;5110825;28;19927;-69
2023/04/16 13:25:35;;;;;;;;;;;12.50;94.40;;;;;;5110910;27;19912;-69
2023/04/16 13:28:01;;;;;;;;;;;12.50;94.40;;;;;;5111038;28;20391;-69
2023/04/16 13:30:28;;;;;;;;;;;12.50;94.30;;;;;;5110921;28;20408;-69
2023/04/16 13:32:54;;;;;;;;;;;12.60;94.20;;;;;;5110735;28;19986;-69
2023/04/16 13:35:19;;;;;;;;;;;12.70;94.10;;;;;;5110730;28;20007;-69
2023/04/16 13:37:45;;;;;;;;;;;12.80;94.10;;;;;;5103973;28;19934;-68
2023/04/16 13:40:10;;;;;;;;;;;12.80;94.00;;;;;;5108932;28;20514;-69
2023/04/16 13:42:36;;;;;;;;;;;12.70;93.90;;;;;;5109958;28;19908;-69
2023/04/16 13:45:01;;;;;;;;;;;12.70;93.90;;;;;;5110592;28;19912;-69
2023/04/16 13:47:27;;;;;;;;;;;12.80;94.10;;;;;;5110743;28;19908;-69
2023/04/16 13:49:53;;;;;;;;;;;12.80;94.10;;;;;;5108941;28;20485;-69
2023/04/16 13:52:18;;;;;;;;;;;12.80;94.10;;;;;;5110561;28;19943;-68
2023/04/16 13:54:44;;;;;;;;;;;12.80;94.00;;;;;;5110229;28;20348;-68
2023/04/16 13:57:10;;;;;;;;;;;12.90;93.90;;;;;;5107510;28;20556;-68
2023/04/16 13:59:35;;;;;;;;;;;12.90;93.90;;;;;;5108896;28;20283;-68
2023/04/16 14:02:01;;;;;;;;;;;13.00;93.80;;;;;;5109828;28;19916;-68
2023/04/16 14:04:26;;;;;;;;;;;13.00;93.70;;;;;;5109201;28;19912;-69
2023/04/16 14:06:52;;;;;;;;;;;13.10;93.60;;;;;;5109730;28;20372;-69
2023/04/16 14:09:17;;;;;;;;;;;13.10;93.60;;;;;;5109702;28;19962;-69
2023/04/16 14:11:43;;;;;;;;;;;13.10;93.60;;;;;;5109748;28;19907;-69
2023/04/16 14:14:08;;;;;;;;;;;13.10;93.60;;;;;;5109273;28;19934;-69
2023/04/16 14:16:34;;;;;;;;;;;13.10;93.80;;;;;;5107993;28;19916;-68
2023/04/16 14:19:00;;;;;;;;;;;13.00;93.70;;;;;;5109273;28;20287;-68
2023/04/16 14:21:26;;;;;;;;;;;13.00;93.80;;;;;;5109248;28;20349;-68